Terminal Aerodrome Forecast
Issued by NWS Springfield, MO

Home | Current Version | Previous Version | Text Only | Print | Product List | Glossary On
Versions: 1 2 3 4 5 6 7 8 9 10 11 12 13 14 15 16 17 18 19
000
FTUS43 KSGF 260006 AAA
TAFSGF
TAF AMD
KSGF 260006Z 2600/2624 VRB10G20KT P6SM VCTS SCT060CB OVC200
     FM260100 VRB03KT P6SM BKN200
     FM261700 22008KT P6SM FEW200=

USA.gov is the U.S. government's official web portal to all federal, state and local government web resources and services.